createdAt,value
2018-12-17T00:00:01.521Z,775.99
2018-12-17T00:00:05.869Z,775.96
2018-12-17T00:00:10.165Z,775.96
2018-12-17T00:00:14.459Z,775.97
2018-12-17T00:00:18.648Z,775.94
2018-12-17T00:00:22.949Z,775.95
2018-12-17T00:00:27.237Z,775.96
2018-12-17T00:00:31.540Z,775.95
2018-12-17T00:00:35.832Z,775.97
2018-12-17T00:00:40.132Z,775.99
2018-12-17T00:00:44.492Z,775.96
2018-12-17T00:00:48.784Z,776.01
2018-12-17T00:00:52.978Z,775.98
2018-12-17T00:00:57.174Z,775.95
2018-12-17T00:01:01.482Z,775.99
2018-12-17T00:01:05.777Z,775.97
2018-12-17T00:01:09.967Z,775.97
2018-12-17T00:01:14.262Z,775.98
2018-12-17T00:01:18.552Z,775.99
2018-12-17T00:01:22.841Z,776.02
2018-12-17T00:01:27.130Z,776
2018-12-17T00:01:31.424Z,776
2018-12-17T00:01:35.727Z,776
2018-12-17T00:01:40.018Z,776.01
2018-12-17T00:01:44.312Z,776.03
2018-12-17T00:01:48.603Z,776.01
2018-12-17T00:01:52.795Z,776.06
2018-12-17T00:01:57.094Z,776.03
2018-12-17T00:02:01.381Z,776.03
2018-12-17T00:02:05.671Z,776.05
2018-12-17T00:02:09.962Z,776.05
2018-12-17T00:02:14.321Z,776.04
2018-12-17T00:02:18.623Z,776.08
2018-12-17T00:02:22.819Z,776.07
2018-12-17T00:02:27.111Z,776.07
2018-12-17T00:02:31.415Z,776.05
2018-12-17T00:02:35.763Z,776.06
2018-12-17T00:02:40.069Z,776.12
2018-12-17T00:02:44.359Z,776.1
2018-12-17T00:02:48.651Z,776.11
2018-12-17T00:02:52.940Z,776.11
2018-12-17T00:02:57.233Z,776.13
2018-12-17T00:03:01.530Z,776.12
2018-12-17T00:03:05.969Z,776.16
2018-12-17T00:03:10.256Z,776.1
2018-12-17T00:03:14.547Z,776.13
2018-12-17T00:03:18.848Z,776.1
2018-12-17T00:03:23.134Z,776.14
2018-12-17T00:03:27.428Z,776.14
2018-12-17T00:03:31.625Z,776.16
2018-12-17T00:03:35.916Z,776.13
2018-12-17T00:03:40.238Z,776.13
2018-12-17T00:03:44.531Z,776.1
2018-12-17T00:03:48.822Z,776.14
2018-12-17T00:03:52.983Z,776.17
2018-12-17T00:03:57.177Z,776.11
2018-12-17T00:04:01.482Z,776.13
2018-12-17T00:04:05.772Z,776.15
2018-12-17T00:04:10.067Z,776.14
2018-12-17T00:04:14.364Z,776.18
2018-12-17T00:04:18.653Z,776.15
2018-12-17T00:04:22.948Z,776.18
2018-12-17T00:04:27.240Z,776.16
2018-12-17T00:04:31.533Z,776.14
2018-12-17T00:04:35.739Z,776.17
2018-12-17T00:04:39.932Z,776.16
2018-12-17T00:04:44.224Z,776.16
2018-12-17T00:04:48.511Z,776.19
2018-12-17T00:04:52.804Z,776.17
2018-12-17T00:04:57.094Z,776.14
2018-12-17T00:05:01.384Z,776.18
2018-12-17T00:05:05.672Z,776.17
2018-12-17T00:05:09.866Z,776.17
2018-12-17T00:05:14.160Z,776.18
2018-12-17T00:05:18.449Z,776.13
2018-12-17T00:05:22.740Z,776.15
2018-12-17T00:05:27.028Z,776.15
2018-12-17T00:05:32.840Z,776.18
2018-12-17T00:05:43.768Z,776.13
2018-12-17T00:05:48.061Z,776.16
2018-12-17T00:05:52.272Z,776.13
2018-12-17T00:05:56.568Z,776.15
2018-12-17T00:06:00.873Z,776.17
2018-12-17T00:06:05.453Z,776.17
2018-12-17T00:06:09.765Z,776.23
2018-12-17T00:06:13.968Z,776.22
2018-12-17T00:06:18.253Z,776.17
2018-12-17T00:06:22.526Z,776.2
2018-12-17T00:06:26.817Z,776.24
2018-12-17T00:06:31.108Z,776.26
2018-12-17T00:06:35.394Z,776.3
2018-12-17T00:06:39.684Z,776.27
2018-12-17T00:06:43.978Z,776.29
2018-12-17T00:06:48.279Z,776.3
2018-12-17T00:06:52.580Z,776.29
2018-12-17T00:06:56.869Z,776.32
2018-12-17T00:07:01.066Z,776.28
2018-12-17T00:07:05.413Z,776.27
2018-12-17T00:07:09.702Z,776.27
2018-12-17T00:07:13.993Z,776.28
2018-12-17T00:07:18.358Z,776.34
2018-12-17T00:07:22.650Z,776.32
2018-12-17T00:07:26.941Z,776.33
2018-12-17T00:07:31.135Z,776.34
2018-12-17T00:07:35.419Z,776.35
2018-12-17T00:07:39.608Z,776.34
2018-12-17T00:07:43.902Z,776.34
2018-12-17T00:07:48.185Z,776.34
2018-12-17T00:07:52.471Z,776.37
2018-12-17T00:07:56.764Z,776.39
2018-12-17T00:08:01.054Z,776.39
2018-12-17T00:08:05.341Z,776.37
2018-12-17T00:08:09.637Z,776.42
2018-12-17T00:08:14.004Z,776.34
2018-12-17T00:08:18.206Z,776.36
2018-12-17T00:08:22.576Z,776.43
2018-12-17T00:08:33.586Z,776.41
2018-12-17T00:08:37.874Z,776.42
2018-12-17T00:08:42.173Z,776.42
2018-12-17T00:08:46.476Z,776.41
2018-12-17T00:08:50.763Z,776.41
2018-12-17T00:08:55.050Z,776.38
2018-12-17T00:08:59.335Z,776.4
2018-12-17T00:09:03.623Z,776.37
2018-12-17T00:09:07.912Z,776.47
2018-12-17T00:09:12.203Z,776.41
2018-12-17T00:09:16.395Z,776.41
2018-12-17T00:09:20.693Z,776.45
2018-12-17T00:09:24.886Z,776.46
2018-12-17T00:09:29.171Z,776.45
2018-12-17T00:09:33.364Z,776.43
2018-12-17T00:09:37.561Z,776.42
2018-12-17T00:09:41.758Z,776.44
2018-12-17T00:09:45.948Z,776.4
2018-12-17T00:09:50.237Z,776.42
2018-12-17T00:09:54.445Z,776.44
2018-12-17T00:09:58.732Z,776.43
2018-12-17T00:10:02.934Z,776.48
2018-12-17T00:10:07.247Z,776.49
2018-12-17T00:10:11.565Z,776.45
2018-12-17T00:10:15.855Z,776.46
2018-12-17T00:10:20.147Z,776.47
2018-12-17T00:10:24.444Z,776.48
2018-12-17T00:10:28.728Z,776.49
2018-12-17T00:10:34.277Z,776.49
2018-12-17T00:10:38.560Z,776.51
2018-12-17T00:10:42.852Z,776.49
2018-12-17T00:10:47.143Z,776.51
2018-12-17T00:10:51.341Z,776.5
2018-12-17T00:10:55.630Z,776.5
2018-12-17T00:10:59.922Z,776.52
2018-12-17T00:11:04.362Z,776.53
2018-12-17T00:11:08.657Z,776.5
2018-12-17T00:11:12.944Z,776.53
2018-12-17T00:11:17.232Z,776.52
2018-12-17T00:11:21.519Z,776.5
2018-12-17T00:11:25.812Z,776.53
2018-12-17T00:11:30.098Z,776.54
2018-12-17T00:11:34.454Z,776.52
2018-12-17T00:11:38.655Z,776.5
2018-12-17T00:11:42.943Z,776.51
2018-12-17T00:11:47.233Z,776.52
2018-12-17T00:11:51.527Z,776.55
2018-12-17T00:11:55.893Z,776.52
2018-12-17T00:12:00.087Z,776.57
2018-12-17T00:12:04.478Z,776.55
2018-12-17T00:12:08.686Z,776.54
2018-12-17T00:12:20.067Z,776.53
2018-12-17T00:12:24.367Z,776.57
2018-12-17T00:12:28.653Z,776.52
2018-12-17T00:12:32.945Z,776.56
2018-12-17T00:12:37.231Z,776.61
2018-12-17T00:12:41.426Z,776.56
2018-12-17T00:12:45.717Z,776.62
2018-12-17T00:12:49.913Z,776.58
2018-12-17T00:12:54.208Z,776.56
2018-12-17T00:12:58.560Z,776.55
2018-12-17T00:13:02.959Z,776.56
2018-12-17T00:13:07.276Z,776.53
2018-12-17T00:13:11.566Z,776.57
2018-12-17T00:13:15.868Z,776.58
2018-12-17T00:13:20.062Z,776.56
2018-12-17T00:13:24.347Z,776.54
2018-12-17T00:13:28.637Z,776.57
2018-12-17T00:13:32.930Z,776.54
2018-12-17T00:13:37.218Z,776.54
2018-12-17T00:13:41.513Z,776.52
2018-12-17T00:13:45.810Z,776.51
2018-12-17T00:13:50.165Z,776.51
2018-12-17T00:13:54.475Z,776.5
2018-12-17T00:13:58.759Z,776.46
2018-12-17T00:14:03.114Z,776.5
2018-12-17T00:14:07.409Z,776.44
2018-12-17T00:14:11.698Z,776.43
2018-12-17T00:14:16.002Z,776.4
2018-12-17T00:14:20.300Z,776.39
2018-12-17T00:14:24.595Z,776.37
2018-12-17T00:14:28.897Z,776.35
2018-12-17T00:14:33.201Z,776.34
2018-12-17T00:14:37.487Z,776.35
2018-12-17T00:14:41.771Z,776.3
2018-12-17T00:14:46.065Z,776.31
2018-12-17T00:14:50.363Z,776.31
2018-12-17T00:14:54.658Z,776.3
2018-12-17T00:14:59.024Z,776.28
2018-12-17T00:15:03.315Z,776.2
2018-12-17T00:15:07.510Z,776.23
2018-12-17T00:15:11.796Z,776.24
2018-12-17T00:15:16.103Z,776.22
2018-12-17T00:15:20.389Z,776.16
2018-12-17T00:15:24.685Z,776.18
2018-12-17T00:15:28.980Z,776.16
2018-12-17T00:15:33.276Z,776.15
2018-12-17T00:15:37.574Z,776.14
2018-12-17T00:15:41.862Z,776.12
2018-12-17T00:15:46.063Z,776.1
2018-12-17T00:15:50.367Z,776.07
2018-12-17T00:15:54.662Z,776.09
2018-12-17T00:15:58.958Z,776.06
2018-12-17T00:16:03.263Z,776.05
2018-12-17T00:16:07.565Z,776.03
2018-12-17T00:16:11.866Z,775.99
2018-12-17T00:16:16.065Z,776
2018-12-17T00:16:20.362Z,776
2018-12-17T00:16:24.566Z,775.91
2018-12-17T00:16:28.853Z,775.93
2018-12-17T00:16:33.146Z,775.87
2018-12-17T00:16:37.431Z,775.88
2018-12-17T00:16:41.727Z,775.87
2018-12-17T00:16:45.925Z,775.88
2018-12-17T00:16:50.210Z,775.88
2018-12-17T00:16:54.503Z,775.84
2018-12-17T00:16:58.790Z,775.86
2018-12-17T00:17:03.080Z,775.87
2018-12-17T00:17:08.888Z,775.82
2018-12-17T00:17:13.179Z,775.82
2018-12-17T00:17:17.539Z,775.82
2018-12-17T00:17:21.742Z,775.79
2018-12-17T00:17:26.035Z,775.77
2018-12-17T00:17:30.359Z,775.84
2018-12-17T00:17:34.646Z,775.79
2018-12-17T00:17:38.940Z,775.78
2018-12-17T00:17:43.225Z,775.74
2018-12-17T00:17:47.514Z,775.8
2018-12-17T00:17:51.809Z,775.78
2018-12-17T00:17:56.108Z,775.77
2018-12-17T00:18:00.403Z,775.7
2018-12-17T00:18:04.700Z,775.7
2018-12-17T00:18:08.990Z,775.71
2018-12-17T00:18:13.284Z,775.7
2018-12-17T00:18:17.481Z,775.72
2018-12-17T00:18:21.678Z,775.72
2018-12-17T00:18:25.974Z,775.7
2018-12-17T00:18:30.273Z,775.72
2018-12-17T00:18:34.564Z,775.72
2018-12-17T00:18:38.853Z,775.65
2018-12-17T00:18:43.199Z,775.63
2018-12-17T00:18:47.488Z,775.65
2018-12-17T00:18:51.776Z,775.67
2018-12-17T00:18:55.969Z,775.64
2018-12-17T00:19:00.258Z,775.64
2018-12-17T00:19:04.453Z,775.64
2018-12-17T00:19:08.746Z,775.61
2018-12-17T00:19:13.032Z,775.55
2018-12-17T00:19:17.318Z,775.59
2018-12-17T00:19:21.509Z,775.6
2018-12-17T00:19:25.805Z,775.58
2018-12-17T00:19:30.001Z,775.59
2018-12-17T00:19:34.293Z,775.52
2018-12-17T00:19:38.595Z,775.51
2018-12-17T00:19:42.794Z,775.53
2018-12-17T00:19:47.079Z,775.51
2018-12-17T00:19:51.383Z,775.52
2018-12-17T00:19:55.677Z,775.49
2018-12-17T00:19:59.873Z,775.5
2018-12-17T00:20:04.234Z,775.49
2018-12-17T00:20:08.334Z,775.48
2018-12-17T00:20:12.620Z,775.5
2018-12-17T00:20:16.908Z,775.48
2018-12-17T00:20:21.192Z,775.47
2018-12-17T00:20:25.543Z,775.44
2018-12-17T00:20:29.836Z,775.44
2018-12-17T00:20:34.125Z,775.4
2018-12-17T00:20:38.328Z,775.43
2018-12-17T00:20:42.622Z,775.41
2018-12-17T00:20:46.914Z,775.41
2018-12-17T00:20:51.213Z,775.4
2018-12-17T00:20:55.578Z,775.4
2018-12-17T00:20:59.864Z,775.41
2018-12-17T00:21:04.155Z,775.38
2018-12-17T00:21:08.348Z,775.42
2018-12-17T00:21:12.638Z,775.42
2018-12-17T00:21:16.836Z,775.38
2018-12-17T00:21:21.126Z,775.39
2018-12-17T00:21:25.413Z,775.39
2018-12-17T00:21:29.736Z,775.39
2018-12-17T00:21:34.019Z,775.38
2018-12-17T00:21:38.324Z,775.39
2018-12-17T00:21:42.619Z,775.42
2018-12-17T00:21:46.909Z,775.37
2018-12-17T00:21:51.119Z,775.36
2018-12-17T00:21:55.406Z,775.36
2018-12-17T00:21:59.597Z,775.36
2018-12-17T00:22:03.941Z,775.32
2018-12-17T00:22:08.144Z,775.32
2018-12-17T00:22:12.444Z,775.34
2018-12-17T00:22:16.734Z,775.34
2018-12-17T00:22:21.019Z,775.31
2018-12-17T00:22:25.307Z,775.33
2018-12-17T00:22:29.598Z,775.29
2018-12-17T00:22:33.889Z,775.35
2018-12-17T00:22:38.174Z,775.28
2018-12-17T00:22:42.383Z,775.3
2018-12-17T00:22:46.735Z,775.32
2018-12-17T00:22:50.929Z,775.29
2018-12-17T00:22:55.128Z,775.35
2018-12-17T00:22:59.331Z,775.34
2018-12-17T00:23:03.593Z,775.31
2018-12-17T00:23:07.886Z,775.34
2018-12-17T00:23:11.982Z,775.28
2018-12-17T00:23:16.275Z,775.3
2018-12-17T00:23:20.569Z,775.31
2018-12-17T00:23:24.864Z,775.28
2018-12-17T00:23:29.155Z,775.28
2018-12-17T00:23:33.444Z,775.26
2018-12-17T00:23:37.816Z,775.26
2018-12-17T00:23:42.109Z,775.27
2018-12-17T00:23:46.408Z,775.26
2018-12-17T00:23:50.725Z,775.24
2018-12-17T00:23:54.915Z,775.23
2018-12-17T00:23:59.205Z,775.21
2018-12-17T00:24:03.453Z,775.23
2018-12-17T00:24:07.744Z,775.2
2018-12-17T00:24:12.037Z,775.21
2018-12-17T00:24:16.330Z,775.21
2018-12-17T00:24:20.520Z,775.23
2018-12-17T00:24:24.819Z,775.18
2018-12-17T00:24:29.110Z,775.18
2018-12-17T00:24:33.402Z,775.2
2018-12-17T00:24:37.705Z,775.24
2018-12-17T00:24:41.991Z,775.21
2018-12-17T00:24:46.289Z,775.21
2018-12-17T00:24:50.481Z,775.19
2018-12-17T00:24:54.806Z,775.18
2018-12-17T00:24:58.995Z,775.19
2018-12-17T00:25:03.291Z,775.18
2018-12-17T00:25:07.488Z,775.19
2018-12-17T00:25:11.680Z,775.2
2018-12-17T00:25:15.988Z,775.19
2018-12-17T00:25:20.280Z,775.19
2018-12-17T00:25:24.374Z,775.19
2018-12-17T00:25:28.569Z,775.17
2018-12-17T00:25:32.858Z,775.14
2018-12-17T00:25:37.053Z,775.16
2018-12-17T00:25:41.341Z,775.15
2018-12-17T00:25:45.624Z,775.15
2018-12-17T00:25:49.910Z,775.13
2018-12-17T00:25:54.199Z,775.06
2018-12-17T00:25:58.485Z,775.06
2018-12-17T00:26:02.776Z,775.07
2018-12-17T00:26:06.868Z,775.09
2018-12-17T00:26:11.156Z,775.07
2018-12-17T00:26:15.349Z,775.08
2018-12-17T00:26:19.543Z,775.05
2018-12-17T00:26:23.840Z,775.05
2018-12-17T00:26:28.134Z,775
2018-12-17T00:26:32.429Z,774.98
2018-12-17T00:26:36.625Z,774.98
2018-12-17T00:26:40.916Z,775
2018-12-17T00:26:45.211Z,774.94
2018-12-17T00:26:49.497Z,774.94
2018-12-17T00:26:53.792Z,774.93
2018-12-17T00:26:58.111Z,774.9
2018-12-17T00:27:02.550Z,774.9
2018-12-17T00:27:06.842Z,774.88
2018-12-17T00:27:11.129Z,774.85
2018-12-17T00:27:15.416Z,774.85
2018-12-17T00:27:19.703Z,774.8
2018-12-17T00:27:23.987Z,774.83
2018-12-17T00:27:28.276Z,774.8
2018-12-17T00:27:32.571Z,774.77
2018-12-17T00:27:36.868Z,774.77
2018-12-17T00:27:41.158Z,774.74
2018-12-17T00:27:45.462Z,774.72
2018-12-17T00:27:49.753Z,774.68
2018-12-17T00:27:54.040Z,774.67
2018-12-17T00:27:58.400Z,774.67
2018-12-17T00:28:09.525Z,774.62
2018-12-17T00:28:13.815Z,774.57
2018-12-17T00:28:18.118Z,774.56
2018-12-17T00:28:22.421Z,774.58
2018-12-17T00:28:26.721Z,774.53
2018-12-17T00:28:31.009Z,774.51
2018-12-17T00:28:35.300Z,774.45
2018-12-17T00:28:39.588Z,774.46
2018-12-17T00:28:43.883Z,774.44
2018-12-17T00:28:48.205Z,774.43
2018-12-17T00:28:52.498Z,774.39
2018-12-17T00:28:56.790Z,774.4
2018-12-17T00:29:01.077Z,774.35
2018-12-17T00:29:05.524Z,774.38
2018-12-17T00:29:09.819Z,774.33
2018-12-17T00:29:14.129Z,774.26
2018-12-17T00:29:18.427Z,774.27
2018-12-17T00:29:22.715Z,774.24
2018-12-17T00:29:26.814Z,774.22
2018-12-17T00:29:31.107Z,774.23
2018-12-17T00:29:35.464Z,774.23
2018-12-17T00:29:39.755Z,774.21
2018-12-17T00:29:44.014Z,774.2
2018-12-17T00:29:48.302Z,774.18
2018-12-17T00:29:52.594Z,774.16
2018-12-17T00:29:56.890Z,774.13
2018-12-17T00:30:01.179Z,774.19
2018-12-17T00:30:05.473Z,774.15
2018-12-17T00:30:09.673Z,774.13
2018-12-17T00:30:13.970Z,774.11
2018-12-17T00:30:18.258Z,774.1
2018-12-17T00:30:22.552Z,774.11
2018-12-17T00:30:26.839Z,774.08
2018-12-17T00:30:31.131Z,774.04
2018-12-17T00:30:35.421Z,774.04
2018-12-17T00:30:39.709Z,774
2018-12-17T00:30:44.086Z,773.98
2018-12-17T00:30:48.372Z,774
2018-12-17T00:30:52.665Z,773.99
2018-12-17T00:30:56.857Z,773.95
2018-12-17T00:31:01.147Z,773.93
2018-12-17T00:31:05.440Z,773.92
2018-12-17T00:31:09.743Z,773.92
2018-12-17T00:31:14.039Z,773.9
2018-12-17T00:31:18.232Z,773.9
2018-12-17T00:31:22.524Z,773.86
2018-12-17T00:31:26.817Z,773.9
2018-12-17T00:31:31.101Z,773.85
2018-12-17T00:31:35.291Z,773.88
2018-12-17T00:31:39.578Z,773.84
2018-12-17T00:31:43.870Z,773.81
2018-12-17T00:31:48.070Z,773.82
2018-12-17T00:31:52.369Z,773.78
2018-12-17T00:31:56.660Z,773.75
2018-12-17T00:32:00.946Z,773.79
2018-12-17T00:32:05.250Z,773.79
2018-12-17T00:32:09.538Z,773.77
2018-12-17T00:32:13.832Z,773.76
2018-12-17T00:32:18.124Z,773.74
2018-12-17T00:32:22.313Z,773.75
2018-12-17T00:32:26.610Z,773.7
2018-12-17T00:32:30.807Z,773.72
2018-12-17T00:32:35.120Z,773.69
2018-12-17T00:32:39.410Z,773.62
2018-12-17T00:32:43.760Z,773.62
2018-12-17T00:32:47.967Z,773.68
2018-12-17T00:32:52.260Z,773.64
2018-12-17T00:32:56.556Z,773.64
2018-12-17T00:33:00.850Z,773.63
2018-12-17T00:33:05.287Z,773.59
2018-12-17T00:33:09.576Z,773.57
2018-12-17T00:33:13.870Z,773.55
2018-12-17T00:33:18.164Z,773.54
2018-12-17T00:33:22.455Z,773.51
2018-12-17T00:33:26.643Z,773.55
2018-12-17T00:33:30.948Z,773.55
2018-12-17T00:33:35.236Z,773.48
2018-12-17T00:33:39.425Z,773.54
2018-12-17T00:33:43.712Z,773.55
2018-12-17T00:33:48.001Z,773.53
2018-12-17T00:33:52.345Z,773.54
2018-12-17T00:33:56.633Z,773.47
2018-12-17T00:34:00.922Z,773.5
2018-12-17T00:34:05.211Z,773.52
2018-12-17T00:34:09.499Z,773.49
2018-12-17T00:34:13.793Z,773.5
2018-12-17T00:34:18.079Z,773.49
2018-12-17T00:34:22.439Z,773.44
2018-12-17T00:34:26.741Z,773.42
2018-12-17T00:34:31.029Z,773.39
2018-12-17T00:34:35.319Z,773.4
2018-12-17T00:34:39.604Z,773.39
2018-12-17T00:34:43.803Z,773.43
2018-12-17T00:34:48.092Z,773.38
2018-12-17T00:34:52.382Z,773.4
2018-12-17T00:34:56.675Z,773.39
2018-12-17T00:35:00.958Z,773.34
2018-12-17T00:35:05.165Z,773.35
2018-12-17T00:35:09.461Z,773.36
2018-12-17T00:35:13.657Z,773.39
2018-12-17T00:35:17.954Z,773.34
2018-12-17T00:35:22.241Z,773.37
2018-12-17T00:35:26.527Z,773.33
2018-12-17T00:35:30.735Z,773.34
2018-12-17T00:35:35.026Z,773.34
2018-12-17T00:35:39.315Z,773.33
2018-12-17T00:35:43.600Z,773.32
2018-12-17T00:35:47.885Z,773.35
2018-12-17T00:35:51.979Z,773.33
2018-12-17T00:35:56.269Z,773.32
2018-12-17T00:36:00.564Z,773.3
2018-12-17T00:36:04.810Z,773.32
2018-12-17T00:36:09.001Z,773.31
2018-12-17T00:36:13.297Z,773.29
2018-12-17T00:36:17.585Z,773.28
2018-12-17T00:36:21.943Z,773.29
2018-12-17T00:36:26.247Z,773.24
2018-12-17T00:36:30.557Z,773.28
2018-12-17T00:36:34.840Z,773.26
2018-12-17T00:36:39.139Z,773.29
2018-12-17T00:36:43.481Z,773.26
2018-12-17T00:36:47.773Z,773.27
2018-12-17T00:36:52.059Z,773.19
2018-12-17T00:36:56.351Z,773.21
2018-12-17T00:37:00.643Z,773.18
2018-12-17T00:37:04.927Z,773.19
2018-12-17T00:37:09.224Z,773.17
2018-12-17T00:37:13.510Z,773.17
2018-12-17T00:37:17.712Z,773.15
2018-12-17T00:37:21.999Z,773.2
2018-12-17T00:37:26.005Z,773.2
2018-12-17T00:37:30.367Z,773.19
2018-12-17T00:37:34.556Z,773.19
2018-12-17T00:37:38.868Z,773.19
2018-12-17T00:37:43.165Z,773.21
2018-12-17T00:37:47.457Z,773.17
2018-12-17T00:37:51.741Z,773.19
2018-12-17T00:37:56.032Z,773.18
2018-12-17T00:38:00.123Z,773.16
2018-12-17T00:38:04.413Z,773.13
2018-12-17T00:38:08.701Z,773.1
2018-12-17T00:38:12.984Z,773.13
2018-12-17T00:38:17.273Z,773.13
2018-12-17T00:38:21.562Z,773.12
2018-12-17T00:38:25.853Z,773.15
2018-12-17T00:38:30.140Z,773.12
2018-12-17T00:38:34.435Z,773.12
2018-12-17T00:38:38.732Z,773.11
2018-12-17T00:38:42.827Z,773.13
2018-12-17T00:38:47.115Z,773.11
2018-12-17T00:38:51.405Z,773.08
2018-12-17T00:38:55.690Z,773.09
2018-12-17T00:38:59.981Z,773.04
2018-12-17T00:39:04.278Z,773.09
2018-12-17T00:39:08.575Z,773.03
2018-12-17T00:39:12.865Z,773.08
2018-12-17T00:39:17.157Z,773.1
2018-12-17T00:39:21.445Z,773.09
2018-12-17T00:39:25.738Z,773.04
2018-12-17T00:39:30.033Z,773.07
2018-12-17T00:39:34.326Z,773.02
2018-12-17T00:39:38.617Z,773.04
2018-12-17T00:39:42.938Z,773.03
2018-12-17T00:39:47.224Z,773.05
2018-12-17T00:39:51.512Z,773.02
2018-12-17T00:39:55.804Z,773.01
2018-12-17T00:40:00.152Z,772.99
2018-12-17T00:40:04.459Z,773.03
2018-12-17T00:40:08.747Z,773
2018-12-17T00:40:13.038Z,773.04
2018-12-17T00:40:17.328Z,773.02
2018-12-17T00:40:21.620Z,773
2018-12-17T00:40:25.907Z,772.96
2018-12-17T00:40:30.200Z,772.99
2018-12-17T00:40:34.490Z,773
2018-12-17T00:40:38.783Z,773.01
2018-12-17T00:40:43.081Z,772.99
2018-12-17T00:40:47.273Z,772.97
2018-12-17T00:40:51.565Z,772.96
2018-12-17T00:40:55.758Z,772.94
2018-12-17T00:41:00.040Z,772.96
2018-12-17T00:41:04.341Z,772.98
2018-12-17T00:41:08.707Z,772.95
2018-12-17T00:41:12.995Z,772.97
2018-12-17T00:41:17.281Z,772.94
2018-12-17T00:41:21.574Z,772.98
2018-12-17T00:41:25.862Z,772.93
2018-12-17T00:41:30.146Z,772.93
2018-12-17T00:41:34.433Z,772.96
2018-12-17T00:41:38.724Z,772.92
2018-12-17T00:41:43.015Z,772.92
2018-12-17T00:41:47.309Z,772.93
2018-12-17T00:41:51.602Z,772.94
2018-12-17T00:41:55.891Z,772.92
2018-12-17T00:42:00.089Z,772.93
2018-12-17T00:42:04.376Z,772.9
2018-12-17T00:42:08.568Z,772.92
2018-12-17T00:42:12.860Z,772.89
2018-12-17T00:42:16.950Z,772.9
2018-12-17T00:42:21.242Z,772.89
2018-12-17T00:42:25.442Z,772.93
2018-12-17T00:42:29.731Z,772.9
2018-12-17T00:42:34.022Z,772.88
2018-12-17T00:42:38.385Z,772.89
2018-12-17T00:42:42.684Z,772.9
2018-12-17T00:42:47.056Z,772.86
2018-12-17T00:42:51.350Z,772.86
2018-12-17T00:42:55.640Z,772.86
2018-12-17T00:42:59.940Z,772.86
2018-12-17T00:43:04.223Z,772.86
2018-12-17T00:43:08.585Z,772.87
2018-12-17T00:43:12.886Z,772.85
2018-12-17T00:43:17.180Z,772.86
2018-12-17T00:43:21.469Z,772.84
2018-12-17T00:43:25.662Z,772.84
2018-12-17T00:43:29.950Z,772.82
2018-12-17T00:43:34.137Z,772.83
2018-12-17T00:43:38.427Z,772.83
2018-12-17T00:43:42.619Z,772.83
2018-12-17T00:43:48.312Z,772.8
2018-12-17T00:43:52.611Z,772.79
2018-12-17T00:43:56.898Z,772.82
2018-12-17T00:44:01.192Z,772.74
2018-12-17T00:44:05.483Z,772.75
2018-12-17T00:44:09.775Z,772.79
2018-12-17T00:44:14.060Z,772.75
2018-12-17T00:44:18.353Z,772.75
2018-12-17T00:44:22.654Z,772.76
2018-12-17T00:44:26.959Z,772.77
2018-12-17T00:44:31.250Z,772.76
2018-12-17T00:44:35.451Z,772.79
2018-12-17T00:44:39.737Z,772.75
2018-12-17T00:44:44.030Z,772.81
2018-12-17T00:44:48.317Z,772.81
2018-12-17T00:44:52.617Z,772.79
2018-12-17T00:44:56.905Z,772.84
2018-12-17T00:45:01.198Z,772.8
2018-12-17T00:45:05.653Z,772.82
2018-12-17T00:45:09.950Z,772.82
2018-12-17T00:45:14.288Z,772.86
2018-12-17T00:45:18.575Z,772.84
2018-12-17T00:45:22.868Z,772.85
2018-12-17T00:45:27.156Z,772.84
2018-12-17T00:45:31.445Z,772.84
2018-12-17T00:45:35.651Z,772.82
2018-12-17T00:45:39.938Z,772.83
2018-12-17T00:45:44.230Z,772.82
2018-12-17T00:45:48.520Z,772.8
2018-12-17T00:45:52.713Z,772.81
2018-12-17T00:45:56.999Z,772.81
2018-12-17T00:46:01.302Z,772.81
2018-12-17T00:46:05.651Z,772.82
2018-12-17T00:46:09.941Z,772.79
2018-12-17T00:46:14.228Z,772.81
2018-12-17T00:46:18.520Z,772.81
2018-12-17T00:46:22.863Z,772.81
2018-12-17T00:46:27.159Z,772.82
2018-12-17T00:46:31.355Z,772.81
2018-12-17T00:46:35.646Z,772.83
2018-12-17T00:46:39.938Z,772.8
2018-12-17T00:46:44.229Z,772.8
2018-12-17T00:46:48.427Z,772.83
2018-12-17T00:46:52.715Z,772.79
2018-12-17T00:46:57.010Z,772.79
2018-12-17T00:47:01.303Z,772.74
2018-12-17T00:47:05.598Z,772.78
2018-12-17T00:47:09.963Z,772.74
2018-12-17T00:47:14.156Z,772.78
2018-12-17T00:47:18.441Z,772.78
2018-12-17T00:47:22.636Z,772.79
2018-12-17T00:47:26.925Z,772.81
2018-12-17T00:47:31.210Z,772.82
2018-12-17T00:47:35.410Z,772.82
2018-12-17T00:47:39.602Z,772.79
2018-12-17T00:47:43.895Z,772.82
2018-12-17T00:47:48.189Z,772.78
2018-12-17T00:47:52.486Z,772.8
2018-12-17T00:47:56.775Z,772.81
2018-12-17T00:48:01.069Z,772.79
2018-12-17T00:48:05.360Z,772.81
2018-12-17T00:48:09.561Z,772.84
2018-12-17T00:48:13.845Z,772.86
2018-12-17T00:48:18.140Z,772.85
2018-12-17T00:48:22.434Z,772.84
2018-12-17T00:48:26.726Z,772.86
2018-12-17T00:48:30.917Z,772.85
2018-12-17T00:48:35.210Z,772.85
2018-12-17T00:48:39.500Z,772.83
2018-12-17T00:48:43.690Z,772.86
2018-12-17T00:48:48.053Z,772.86
2018-12-17T00:48:52.339Z,772.91
2018-12-17T00:48:56.629Z,772.89
2018-12-17T00:49:00.919Z,772.88
2018-12-17T00:49:05.317Z,772.91
2018-12-17T00:49:09.603Z,772.88
2018-12-17T00:49:13.899Z,772.88
2018-12-17T00:49:18.188Z,772.9
2018-12-17T00:49:22.481Z,772.9
2018-12-17T00:49:26.767Z,772.91
2018-12-17T00:49:31.062Z,772.84
2018-12-17T00:49:35.353Z,772.89
2018-12-17T00:49:39.639Z,772.94
2018-12-17T00:49:43.931Z,772.92
2018-12-17T00:49:48.219Z,772.92
2018-12-17T00:49:52.509Z,772.94
2018-12-17T00:49:56.805Z,772.93
2018-12-17T00:50:01.100Z,772.97
2018-12-17T00:50:05.442Z,772.93
2018-12-17T00:50:09.733Z,772.95
2018-12-17T00:50:14.027Z,772.94
2018-12-17T00:50:18.328Z,772.95
2018-12-17T00:50:22.522Z,772.97
2018-12-17T00:50:26.817Z,772.94
2018-12-17T00:50:31.109Z,772.95
2018-12-17T00:50:35.434Z,772.98
2018-12-17T00:50:39.722Z,772.98
2018-12-17T00:50:44.005Z,772.95
2018-12-17T00:50:48.297Z,772.98
2018-12-17T00:50:52.589Z,772.97
2018-12-17T00:50:56.785Z,772.98
2018-12-17T00:51:01.046Z,773
2018-12-17T00:51:05.333Z,773
2018-12-17T00:51:09.634Z,773.01
2018-12-17T00:51:13.922Z,773.04
2018-12-17T00:51:18.209Z,772.97
2018-12-17T00:51:22.524Z,773.05
2018-12-17T00:51:26.811Z,773.02
2018-12-17T00:51:31.099Z,773.04
2018-12-17T00:51:35.394Z,773.03
2018-12-17T00:51:39.699Z,773.02
2018-12-17T00:51:43.987Z,773.04
2018-12-17T00:51:48.271Z,773.02
2018-12-17T00:51:52.555Z,773.05
2018-12-17T00:51:56.849Z,773.05
2018-12-17T00:52:01.053Z,773.03
2018-12-17T00:52:05.338Z,773.08
2018-12-17T00:52:09.634Z,773.05
2018-12-17T00:52:13.922Z,773.03
2018-12-17T00:52:18.216Z,773.07
2018-12-17T00:52:22.504Z,773.09
2018-12-17T00:52:26.790Z,773.04
2018-12-17T00:52:31.078Z,773.1
2018-12-17T00:52:35.403Z,773.07
2018-12-17T00:52:39.691Z,773.09
2018-12-17T00:52:43.982Z,773.08
2018-12-17T00:52:48.172Z,773.09
2018-12-17T00:52:52.456Z,773.11
2018-12-17T00:52:56.743Z,773.08
2018-12-17T00:53:01.034Z,773.09
2018-12-17T00:53:05.225Z,773.09
2018-12-17T00:53:09.420Z,773.1
2018-12-17T00:53:13.704Z,773.09
2018-12-17T00:53:17.893Z,773.08
2018-12-17T00:53:22.084Z,773.08
2018-12-17T00:53:26.366Z,773.08
2018-12-17T00:53:30.552Z,773.1
2018-12-17T00:53:34.740Z,773.11
2018-12-17T00:53:39.025Z,773.12
2018-12-17T00:53:43.325Z,773.11
2018-12-17T00:53:47.611Z,773.1
2018-12-17T00:53:51.703Z,773.07
2018-12-17T00:53:55.994Z,773.08
2018-12-17T00:54:00.288Z,773.1
2018-12-17T00:54:04.580Z,773.07
2018-12-17T00:54:08.871Z,773.1
2018-12-17T00:54:13.065Z,773.09